createdAt,value
2019-04-21T06:53:29.048Z,16.90
2019-04-21T06:59:00.536Z,15.40
2019-04-21T07:04:42.375Z,15.60
2019-04-21T07:10:20.607Z,14.60
2019-04-21T07:15:43.274Z,14.80
2019-04-21T07:21:05.852Z,16.20
2019-04-21T07:26:36.150Z,14.60
2019-04-21T07:37:17.163Z,15.20
2019-04-21T07:42:32.349Z,16.20
2019-04-21T07:48:00.646Z,14.20
2019-04-21T07:53:20.978Z,14.40
2019-04-21T07:58:35.092Z,13.20
2019-04-21T08:03:51.818Z,13.40
2019-04-21T08:09:11.685Z,14.10
2019-04-21T08:14:28.129Z,15.90
2019-04-21T08:19:42.382Z,14.90
2019-04-21T08:24:55.989Z,13.40
2019-04-21T08:30:10.756Z,12.60
2019-04-21T08:40:40.572Z,13.40
2019-04-21T08:45:52.265Z,12.90
2019-04-21T08:51:20.568Z,10.50
2019-04-21T08:56:21.102Z,12.70
2019-04-21T09:01:36.232Z,18.00
2019-04-21T09:06:58.444Z,12.80
2019-04-21T09:11:58.861Z,11.70
2019-04-21T09:17:06.321Z,14.70
2019-04-21T09:22:23.863Z,13.60
2019-04-21T09:27:36.498Z,10.90
2019-04-21T09:32:36.988Z,11.10
2019-04-21T09:37:44.251Z,14.50
2019-04-21T09:42:55.790Z,10.20
2019-04-21T09:48:07.860Z,9.70
2019-04-21T09:53:22.586Z,9.60
2019-04-21T09:58:33.427Z,8.90
2019-04-21T10:03:43.306Z,10.60
2019-04-21T10:08:58.251Z,10.20
2019-04-21T10:14:05.002Z,8.70
2019-04-21T10:18:59.641Z,9.90
2019-04-21T10:23:54.160Z,12.80
2019-04-21T10:28:46.849Z,12.90
2019-04-21T10:33:42.135Z,10.70
2019-04-21T10:38:43.070Z,10.50
2019-04-21T10:43:45.251Z,12.10
2019-04-21T10:48:40.968Z,10.40
2019-04-21T10:53:34.582Z,13.50
2019-04-21T10:58:28.965Z,10.80
2019-04-21T11:03:23.059Z,11.40
2019-04-21T11:08:25.443Z,7.80
2019-04-21T11:13:32.609Z,11.30
2019-04-21T11:18:28.120Z,10.50
2019-04-21T11:23:23.339Z,8.80
2019-04-21T11:28:18.531Z,11.10
2019-04-21T11:33:13.111Z,13.00
2019-04-21T11:38:14.852Z,11.60
2019-04-21T11:43:19.741Z,11.80
2019-04-21T11:48:14.450Z,10.20
2019-04-21T11:53:10.509Z,10.70
2019-04-21T11:58:05.613Z,10.20
2019-04-21T12:03:01.368Z,9.50
2019-04-21T12:07:58.361Z,8.80
2019-04-21T12:12:55.078Z,8.30
2019-04-21T12:17:52.147Z,9.80
2019-04-21T12:22:47.403Z,7.20
2019-04-21T12:27:41.638Z,9.30
2019-04-21T12:32:38.142Z,8.10
2019-04-21T12:37:32.983Z,9.50
2019-04-21T12:42:27.536Z,9.50
2019-04-21T12:47:21.728Z,8.70
2019-04-21T12:52:15.810Z,8.70
2019-04-21T12:57:09.858Z,8.60
2019-04-21T13:02:04.011Z,7.20
2019-04-21T13:06:57.318Z,9.00
2019-04-21T13:11:52.957Z,9.40
2019-04-21T13:16:47.764Z,7.50
2019-04-21T13:21:42.329Z,7.70
2019-04-21T13:26:42.821Z,6.90
2019-04-21T13:31:48.058Z,8.00
2019-04-21T13:36:43.554Z,9.40
2019-04-21T13:41:59.811Z,8.90
2019-04-21T13:47:00.945Z,8.60
2019-04-21T13:51:56.418Z,7.90
2019-04-21T13:56:50.374Z,7.30
2019-04-21T14:01:47.964Z,7.60
2019-04-21T14:06:44.647Z,8.70
2019-04-21T14:11:37.667Z,8.00
2019-04-21T14:16:30.186Z,7.50
2019-04-21T14:21:26.968Z,11.40
2019-04-21T14:26:22.372Z,9.80
2019-04-21T14:31:16.614Z,9.00
2019-04-21T14:36:08.742Z,8.20
2019-04-21T14:41:04.647Z,8.70
2019-04-21T14:45:58.982Z,9.00
2019-04-21T14:50:54.584Z,9.30
2019-04-21T14:55:46.738Z,10.40
2019-04-21T15:00:41.863Z,9.40
2019-04-21T15:05:35.601Z,8.70
2019-04-21T15:10:33.381Z,14.90
2019-04-21T15:15:27.892Z,8.20
2019-04-21T15:20:22.066Z,8.20
2019-04-21T15:25:18.347Z,9.00
2019-04-21T15:30:14.270Z,5.90
2019-04-21T15:35:09.170Z,8.60
2019-04-21T15:40:14.726Z,8.60
2019-04-21T15:45:16.744Z,8.70
2019-04-21T15:50:15.437Z,7.40
2019-04-21T15:55:14.764Z,8.10
2019-04-21T16:00:08.815Z,7.30
2019-04-21T16:05:04.682Z,10.50
2019-04-21T16:09:59.807Z,7.80
2019-04-21T16:15:00.990Z,7.60
2019-04-21T16:19:56.163Z,7.30
2019-04-21T16:24:48.032Z,8.80
2019-04-21T16:29:41.707Z,8.80
2019-04-21T16:34:45.264Z,8.20
2019-04-21T16:39:51.777Z,8.30
2019-04-21T16:44:45.586Z,7.50
2019-04-21T16:49:39.993Z,9.60
2019-04-21T16:54:32.080Z,8.00
2019-04-21T16:59:26.383Z,6.90
2019-04-21T17:04:22.210Z,9.20
2019-04-21T17:09:16.815Z,8.30
2019-04-21T17:14:27.060Z,8.80
2019-04-21T17:19:29.721Z,7.80
2019-04-21T17:24:38.062Z,8.00
2019-04-21T17:29:34.539Z,7.50
2019-04-21T17:34:30.535Z,7.60
2019-04-21T17:39:31.103Z,9.00
2019-04-21T17:44:23.475Z,21.10
2019-04-21T17:49:19.436Z,9.70
2019-04-21T17:54:21.859Z,6.50
2019-04-21T17:59:56.106Z,8.20
2019-04-21T18:05:02.104Z,9.90
2019-04-21T18:10:11.102Z,7.20
2019-04-21T18:15:28.843Z,8.10
2019-04-21T18:20:30.072Z,8.00
2019-04-21T18:25:38.347Z,6.00
2019-04-21T18:30:42.458Z,7.50
2019-04-21T18:35:43.702Z,9.00
2019-04-21T18:40:54.357Z,6.70
2019-04-21T18:46:13.035Z,9.60
2019-04-21T18:51:13.811Z,8.80
2019-04-21T18:56:25.322Z,6.70
2019-04-21T19:01:28.128Z,7.70
2019-04-21T19:06:51.238Z,8.60
2019-04-21T19:12:11.534Z,8.20
2019-04-21T19:17:57.915Z,6.70
2019-04-21T19:22:46.527Z,10.90
2019-04-21T19:28:05.897Z,8.40
2019-04-21T19:33:23.969Z,6.90
2019-04-21T19:38:32.686Z,7.70
2019-04-21T19:44:02.188Z,9.50
2019-04-21T19:49:26.530Z,7.90
2019-04-21T19:54:29.843Z,8.50
2019-04-21T19:59:49.911Z,8.30
2019-04-21T20:05:06.952Z,8.10
2019-04-21T20:10:43.754Z,11.10
2019-04-21T20:16:06.132Z,10.50
2019-04-21T20:21:10.240Z,9.40
2019-04-21T20:26:13.975Z,9.30
2019-04-21T20:31:45.562Z,8.70
2019-04-21T20:37:20.549Z,10.50
2019-04-21T20:42:42.213Z,11.30
2019-04-21T20:47:54.518Z,11.80
2019-04-21T20:53:29.942Z,9.80
2019-04-21T20:58:55.309Z,12.20
2019-04-21T21:04:20.986Z,11.70
2019-04-21T21:09:59.934Z,12.50
2019-04-21T21:15:29.027Z,14.00
2019-04-21T21:20:53.860Z,13.10
2019-04-21T21:26:30.556Z,14.30
2019-04-21T21:32:08.083Z,14.30
2019-04-21T21:37:36.053Z,14.10
2019-04-21T21:42:47.928Z,14.50
2019-04-21T21:48:21.610Z,14.50
2019-04-21T21:53:42.493Z,15.50
2019-04-21T21:59:01.076Z,15.70
2019-04-21T22:04:40.957Z,16.40
2019-04-21T22:10:10.356Z,15.90
2019-04-21T22:15:33.656Z,17.80
2019-04-21T22:21:09.863Z,16.90
2019-04-21T22:26:39.006Z,17.60
2019-04-21T22:32:10.060Z,17.80
2019-04-21T22:37:54.707Z,16.70
2019-04-21T22:43:36.321Z,17.00
2019-04-21T22:49:14.506Z,17.60
2019-04-21T22:54:48.843Z,17.70
